createdAt,value
2023-02-22T00:01:36.021Z,3.90
2023-02-22T00:04:06.210Z,1.80
2023-02-22T00:06:33.836Z,1.50
2023-02-22T00:09:04.349Z,3.60
2023-02-22T00:11:31.373Z,1.20
2023-02-22T00:13:58.472Z,1.90
2023-02-22T00:16:27.244Z,3.20
2023-02-22T00:18:54.445Z,1.10
2023-02-22T00:21:25.048Z,1.40
2023-02-22T00:23:54.083Z,1.10
2023-02-22T00:26:22.883Z,2.20
2023-02-22T00:28:52.832Z,1.90
2023-02-22T00:31:21.631Z,2.20
2023-02-22T00:33:50.789Z,1.30
2023-02-22T00:36:18.184Z,1.60
2023-02-22T00:38:45.194Z,1.80
2023-02-22T00:41:12.527Z,2.40
2023-02-22T00:43:40.973Z,1.90
2023-02-22T00:46:08.285Z,2.70
2023-02-22T00:48:37.069Z,2.40
2023-02-22T00:51:04.462Z,1.70
2023-02-22T00:53:31.790Z,2.00
2023-02-22T00:55:59.047Z,1.60
2023-02-22T00:58:28.417Z,1.50
2023-02-22T01:00:56.794Z,3.70
2023-02-22T01:03:23.938Z,2.60
2023-02-22T01:05:55.618Z,1.90
2023-02-22T01:08:24.629Z,2.00
2023-02-22T01:10:52.196Z,1.90
2023-02-22T01:13:21.158Z,4.40
2023-02-22T01:15:48.452Z,2.40
2023-02-22T01:18:16.777Z,1.40
2023-02-22T01:20:47.564Z,4.60
2023-02-22T01:23:16.857Z,1.80
2023-02-22T01:25:45.714Z,1.80
2023-02-22T01:28:15.148Z,2.70
2023-02-22T01:30:45.745Z,2.10
2023-02-22T01:33:15.084Z,3.40
2023-02-22T01:35:43.021Z,1.50
2023-02-22T01:38:10.273Z,2.20
2023-02-22T01:40:41.481Z,1.60
2023-02-22T01:43:19.281Z,1.80
2023-02-22T01:46:20.637Z,1.30
2023-02-22T01:49:02.477Z,1.80
2023-02-22T01:51:38.631Z,3.40
2023-02-22T01:54:17.920Z,1.40
2023-02-22T01:56:57.167Z,1.60
2023-02-22T01:59:24.817Z,1.40
2023-02-22T02:01:52.010Z,1.20
2023-02-22T02:04:24.961Z,1.30
2023-02-22T02:07:03.536Z,1.10
2023-02-22T02:09:43.316Z,1.40
2023-02-22T02:12:14.204Z,3.20
2023-02-22T02:14:44.095Z,1.50
2023-02-22T02:17:14.916Z,1.70
2023-02-22T02:20:07.958Z,3.00
2023-02-22T02:22:54.685Z,2.10
2023-02-22T02:25:55.659Z,1.50
2023-02-22T02:28:25.879Z,1.80
2023-02-22T02:31:05.231Z,4.70
2023-02-22T02:34:04.233Z,1.70
2023-02-22T02:37:07.949Z,1.70
2023-02-22T02:39:43.147Z,2.10
2023-02-22T02:42:17.430Z,2.20
2023-02-22T02:45:08.318Z,1.70
2023-02-22T02:47:41.913Z,1.30
2023-02-22T02:50:24.168Z,4.60
2023-02-22T02:52:55.203Z,7.70
2023-02-22T02:55:23.164Z,9.30
2023-02-22T02:57:50.046Z,8.90
2023-02-22T03:00:26.174Z,12.10
2023-02-22T03:03:30.643Z,12.00
2023-02-22T03:06:15.801Z,10.40
2023-02-22T03:08:53.258Z,9.10
2023-02-22T03:11:35.319Z,11.30
2023-02-22T03:14:24.744Z,9.20
2023-02-22T03:17:13.019Z,9.90
2023-02-22T03:19:49.656Z,10.10
2023-02-22T03:22:34.383Z,11.70
2023-02-22T03:25:07.402Z,11.50
2023-02-22T03:27:48.869Z,14.80
2023-02-22T03:30:55.430Z,15.50
2023-02-22T03:33:33.260Z,16.80
2023-02-22T03:36:11.781Z,14.90
2023-02-22T03:38:42.204Z,13.20
2023-02-22T03:41:15.872Z,13.60
2023-02-22T03:43:48.504Z,11.90
2023-02-22T03:46:18.853Z,13.10
2023-02-22T03:49:06.539Z,11.70
2023-02-22T03:51:36.389Z,15.10
2023-02-22T03:54:04.389Z,18.50
2023-02-22T03:56:52.689Z,17.00
2023-02-22T03:59:26.759Z,15.20
2023-02-22T04:01:56.371Z,14.10
2023-02-22T04:04:24.869Z,15.60
2023-02-22T04:06:52.999Z,16.10
2023-02-22T04:09:22.712Z,15.50
2023-02-22T04:11:49.803Z,19.70
2023-02-22T04:14:16.816Z,20.40
2023-02-22T04:16:43.919Z,17.70
2023-02-22T04:19:10.879Z,15.80
2023-02-22T04:21:39.137Z,22.10
2023-02-22T04:24:11.466Z,24.00
2023-02-22T04:26:40.448Z,19.10
2023-02-22T04:29:08.001Z,20.80
2023-02-22T04:31:38.635Z,20.70
2023-02-22T04:34:06.304Z,21.70
2023-02-22T04:36:37.523Z,22.90
2023-02-22T04:39:04.887Z,20.10
2023-02-22T04:41:32.842Z,16.50
2023-02-22T04:43:59.869Z,14.90
2023-02-22T04:46:28.259Z,16.10
2023-02-22T04:48:57.273Z,16.20
2023-02-22T04:51:26.355Z,16.00
2023-02-22T04:54:06.373Z,17.30
2023-02-22T04:56:36.568Z,22.80
2023-02-22T04:59:05.979Z,21.80
2023-02-22T05:01:35.396Z,19.30
2023-02-22T05:04:07.574Z,22.50
2023-02-22T05:06:34.875Z,19.90
2023-02-22T05:09:02.897Z,21.80
2023-02-22T05:11:29.941Z,22.60
2023-02-22T05:13:56.991Z,18.70
2023-02-22T05:16:24.648Z,24.80
2023-02-22T05:18:52.025Z,22.70
2023-02-22T05:21:19.125Z,24.30
2023-02-22T05:23:46.200Z,29.00
2023-02-22T05:26:13.735Z,20.40
2023-02-22T05:28:42.094Z,20.70
2023-02-22T05:31:09.122Z,22.40
2023-02-22T05:33:36.552Z,15.40
2023-02-22T05:36:07.215Z,20.00
2023-02-22T05:38:42.657Z,19.20
2023-02-22T05:41:13.471Z,20.80
2023-02-22T05:43:40.814Z,19.00
2023-02-22T05:46:08.408Z,33.80
2023-02-22T05:48:36.157Z,27.80
2023-02-22T05:51:05.007Z,17.80
2023-02-22T05:53:32.071Z,24.40
2023-02-22T05:56:03.435Z,20.20
2023-02-22T05:58:30.634Z,16.70
2023-02-22T06:00:57.619Z,18.60
2023-02-22T06:03:25.108Z,16.70
2023-02-22T06:05:52.063Z,22.30
2023-02-22T06:08:20.079Z,17.30
2023-02-22T06:10:50.556Z,19.50
2023-02-22T06:13:19.427Z,14.80
2023-02-22T06:15:47.514Z,12.10
2023-02-22T06:18:14.732Z,14.40
2023-02-22T06:20:41.659Z,15.90
2023-02-22T06:23:08.811Z,13.30
2023-02-22T06:25:36.980Z,13.80
2023-02-22T06:28:04.304Z,15.50
2023-02-22T06:30:31.683Z,15.00
2023-02-22T06:32:58.720Z,20.90
2023-02-22T06:35:25.857Z,14.20
2023-02-22T06:37:54.143Z,15.30
2023-02-22T06:40:21.161Z,17.20
2023-02-22T06:42:49.054Z,15.10
2023-02-22T06:45:17.694Z,14.90
2023-02-22T06:47:45.200Z,13.60
2023-02-22T06:50:21.959Z,13.60
2023-02-22T06:52:49.312Z,20.20
2023-02-22T06:55:22.630Z,12.80
2023-02-22T06:57:51.163Z,15.90
2023-02-22T07:00:21.118Z,21.20
2023-02-22T07:02:48.516Z,14.60
2023-02-22T07:05:20.102Z,14.90
2023-02-22T07:07:54.954Z,12.80
2023-02-22T07:10:28.303Z,14.50
2023-02-22T07:13:02.035Z,11.70
2023-02-22T07:15:30.807Z,11.50
2023-02-22T07:17:58.326Z,15.90
2023-02-22T07:20:28.299Z,16.30
2023-02-22T07:22:56.521Z,18.90
2023-02-22T07:25:23.759Z,36.70
2023-02-22T07:27:52.025Z,40.00
2023-02-22T07:30:27.366Z,23.10
2023-02-22T07:32:55.405Z,17.80
2023-02-22T07:35:29.716Z,20.10
2023-02-22T07:37:59.526Z,19.90
2023-02-22T07:40:26.803Z,21.80
2023-02-22T07:42:59.019Z,17.40
2023-02-22T07:45:32.070Z,28.50
2023-02-22T07:48:01.227Z,19.10
2023-02-22T07:50:30.634Z,23.10
2023-02-22T07:53:00.376Z,20.60
2023-02-22T07:55:30.861Z,19.90
2023-02-22T07:58:01.499Z,22.20
2023-02-22T08:00:39.786Z,16.60
2023-02-22T08:03:10.722Z,18.20
2023-02-22T08:05:40.057Z,19.10
2023-02-22T08:08:08.484Z,29.60
2023-02-22T08:10:35.965Z,19.40
2023-02-22T08:13:04.777Z,21.00
2023-02-22T08:15:36.609Z,19.20
2023-02-22T08:18:08.835Z,21.90
2023-02-22T08:20:38.221Z,21.30
2023-02-22T08:23:07.273Z,18.10
2023-02-22T08:25:35.019Z,20.10
2023-02-22T08:28:10.884Z,21.30
2023-02-22T08:30:42.840Z,18.70
2023-02-22T08:33:13.877Z,26.40
2023-02-22T08:35:41.114Z,25.80
2023-02-22T08:38:17.308Z,31.10
2023-02-22T08:40:45.064Z,24.30
2023-02-22T08:43:13.410Z,28.90
2023-02-22T08:45:40.566Z,30.10
2023-02-22T08:48:07.868Z,32.90
2023-02-22T08:50:35.762Z,28.60
2023-02-22T08:53:04.832Z,28.50
2023-02-22T08:55:35.728Z,29.20
2023-02-22T08:58:05.407Z,35.80
2023-02-22T09:00:33.592Z,33.50
2023-02-22T09:03:05.958Z,33.80
2023-02-22T09:05:33.034Z,35.90
2023-02-22T09:08:01.196Z,38.40
2023-02-22T09:10:32.403Z,32.20
2023-02-22T09:13:06.600Z,39.00
2023-02-22T09:15:35.896Z,34.00
2023-02-22T09:18:08.766Z,33.40
2023-02-22T09:20:37.633Z,36.50
2023-02-22T09:23:09.326Z,32.10
2023-02-22T09:25:47.616Z,29.00
2023-02-22T09:28:27.804Z,35.90
2023-02-22T09:33:25.551Z,43.70
2023-02-22T09:35:52.587Z,30.70
2023-02-22T09:38:24.366Z,31.30
2023-02-22T09:41:08.471Z,32.30
2023-02-22T09:43:50.550Z,32.80
2023-02-22T09:46:34.251Z,31.80
2023-02-22T09:49:06.919Z,34.60
2023-02-22T09:51:48.771Z,42.00
2023-02-22T09:54:42.924Z,33.30
2023-02-22T09:57:17.624Z,34.70
2023-02-22T10:00:16.656Z,34.60
2023-02-22T10:02:51.985Z,34.60
2023-02-22T10:05:27.548Z,27.70
2023-02-22T10:08:09.622Z,33.50
2023-02-22T10:10:46.664Z,28.50
2023-02-22T10:13:30.119Z,35.00
2023-02-22T10:16:05.956Z,33.80
2023-02-22T10:18:54.509Z,34.70
2023-02-22T10:21:50.771Z,35.00
2023-02-22T10:24:42.873Z,34.20
2023-02-22T10:27:20.113Z,35.80
2023-02-22T10:30:25.037Z,37.30
2023-02-22T10:33:18.707Z,32.00
2023-02-22T10:35:47.264Z,31.10
2023-02-22T10:38:19.915Z,36.20
2023-02-22T10:40:56.536Z,34.30
2023-02-22T10:43:25.335Z,37.90
2023-02-22T10:45:55.890Z,36.80
2023-02-22T10:48:28.178Z,40.90
2023-02-22T10:51:01.475Z,38.70
2023-02-22T10:53:29.632Z,38.60
2023-02-22T10:56:09.855Z,41.80
2023-02-22T10:58:51.774Z,40.00
2023-02-22T11:01:25.615Z,34.60
2023-02-22T11:04:04.152Z,31.60
2023-02-22T11:06:34.672Z,35.60
2023-02-22T11:09:17.566Z,34.60
2023-02-22T11:11:47.609Z,36.40
2023-02-22T11:14:28.188Z,39.80
2023-02-22T11:16:57.765Z,39.90
2023-02-22T11:19:30.842Z,42.50
2023-02-22T11:22:14.291Z,39.00
2023-02-22T11:24:52.651Z,35.50
2023-02-22T11:27:27.822Z,42.30
2023-02-22T11:30:08.163Z,34.80
2023-02-22T11:32:44.246Z,39.30
2023-02-22T11:35:28.246Z,35.60
2023-02-22T11:38:32.221Z,40.30
2023-02-22T11:41:14.051Z,45.70
2023-02-22T11:43:43.552Z,31.70
2023-02-22T11:46:16.598Z,42.70
2023-02-22T11:49:12.272Z,37.20
2023-02-22T11:52:16.276Z,41.90
2023-02-22T11:55:36.306Z,33.20
2023-02-22T11:58:53.636Z,40.30
2023-02-22T12:01:36.466Z,41.50
2023-02-22T12:04:32.677Z,38.20
2023-02-22T12:07:21.618Z,44.50
2023-02-22T12:09:58.213Z,50.50
2023-02-22T12:12:39.923Z,54.90
2023-02-22T12:15:15.654Z,42.90
2023-02-22T12:18:21.639Z,46.90
2023-02-22T12:21:00.646Z,40.80
2023-02-22T12:23:41.146Z,60.50
2023-02-22T12:26:22.497Z,45.40
2023-02-22T12:29:06.133Z,44.20
2023-02-22T12:31:52.811Z,44.90
2023-02-22T12:34:43.150Z,45.70
2023-02-22T12:39:53.488Z,41.90
2023-02-22T12:42:50.110Z,48.90
2023-02-22T12:45:42.409Z,38.40
2023-02-22T12:48:42.872Z,42.10
2023-02-22T12:51:25.478Z,37.20
2023-02-22T12:54:30.871Z,39.90
2023-02-22T12:57:23.228Z,50.50
2023-02-22T12:59:55.601Z,41.90
2023-02-22T13:02:39.153Z,41.70
2023-02-22T13:05:12.994Z,43.10
2023-02-22T13:07:46.961Z,44.60
2023-02-22T13:10:30.791Z,46.20
2023-02-22T13:13:10.670Z,39.80
2023-02-22T13:15:44.094Z,41.10
2023-02-22T13:18:47.489Z,35.40
2023-02-22T13:21:29.533Z,28.20
2023-02-22T13:24:05.478Z,26.40
2023-02-22T13:26:47.049Z,21.80
2023-02-22T13:29:22.640Z,19.30
2023-02-22T13:32:11.855Z,21.20
2023-02-22T13:34:56.285Z,27.30
2023-02-22T13:37:51.075Z,22.30
2023-02-22T13:40:42.232Z,30.30
2023-02-22T13:43:21.106Z,23.00
2023-02-22T13:46:31.499Z,25.50
2023-02-22T13:49:10.935Z,20.70
2023-02-22T13:52:07.867Z,23.40
2023-02-22T13:54:46.073Z,26.70
2023-02-22T13:57:26.750Z,24.90
2023-02-22T14:00:15.469Z,26.50
2023-02-22T14:03:08.552Z,22.70
2023-02-22T14:05:44.679Z,22.80
2023-02-22T14:08:21.255Z,18.80
2023-02-22T14:11:18.088Z,20.10
2023-02-22T14:14:00.551Z,23.50
2023-02-22T14:16:33.372Z,21.10
2023-02-22T14:19:23.221Z,17.40
2023-02-22T14:22:02.241Z,21.80
2023-02-22T14:24:47.106Z,22.50
2023-02-22T14:27:17.036Z,23.90
2023-02-22T14:29:56.080Z,19.90
2023-02-22T14:32:34.690Z,28.40
2023-02-22T14:35:14.249Z,23.10
2023-02-22T14:37:57.109Z,19.00
2023-02-22T14:40:28.852Z,17.40
2023-02-22T14:43:19.297Z,18.30
2023-02-22T14:45:53.013Z,20.10
2023-02-22T14:48:20.233Z,18.20
2023-02-22T14:50:52.765Z,19.50
2023-02-22T14:53:36.169Z,33.40
2023-02-22T14:56:17.242Z,69.70
2023-02-22T14:58:51.564Z,31.00
2023-02-22T15:01:19.726Z,25.20
2023-02-22T15:03:49.749Z,27.30
2023-02-22T15:06:25.286Z,17.80
2023-02-22T15:09:06.907Z,17.90
2023-02-22T15:11:35.717Z,15.30
2023-02-22T15:14:25.241Z,20.50
2023-02-22T15:16:56.104Z,33.50
2023-02-22T15:19:34.477Z,25.60
2023-02-22T15:22:02.381Z,24.10
2023-02-22T15:24:34.015Z,19.70
2023-02-22T15:27:07.743Z,30.90
2023-02-22T15:29:46.832Z,24.90
2023-02-22T15:32:30.441Z,23.10
2023-02-22T15:35:16.448Z,26.00
2023-02-22T15:37:46.092Z,29.90
2023-02-22T15:40:20.354Z,23.80
2023-02-22T15:42:52.547Z,23.10
2023-02-22T15:45:24.610Z,18.50
2023-02-22T15:47:54.468Z,26.40
2023-02-22T15:50:25.995Z,32.70
2023-02-22T15:53:01.122Z,26.90
2023-02-22T15:55:34.294Z,25.60
2023-02-22T15:58:10.401Z,28.70
2023-02-22T16:00:41.524Z,47.20
2023-02-22T16:03:15.904Z,44.80
2023-02-22T16:05:49.932Z,35.30
2023-02-22T16:08:25.115Z,29.30
2023-02-22T16:11:13.096Z,54.40
2023-02-22T16:13:52.524Z,47.20
2023-02-22T16:16:20.982Z,29.80
2023-02-22T16:18:50.023Z,28.90
2023-02-22T16:21:23.112Z,33.50
2023-02-22T16:23:51.416Z,30.80
2023-02-22T16:26:29.109Z,29.70
2023-02-22T16:29:05.581Z,32.00
2023-02-22T16:31:38.626Z,22.10
2023-02-22T16:34:07.921Z,24.60
2023-02-22T16:36:44.738Z,32.70
2023-02-22T16:39:22.018Z,31.90
2023-02-22T16:41:50.881Z,69.40
2023-02-22T16:44:18.275Z,50.90
2023-02-22T16:46:45.681Z,41.40
2023-02-22T16:49:14.172Z,31.10
2023-02-22T16:51:48.832Z,29.90
2023-02-22T16:54:25.115Z,34.70
2023-02-22T16:56:54.054Z,32.10
2023-02-22T16:59:22.889Z,30.30
2023-02-22T17:01:49.783Z,25.80
2023-02-22T17:04:21.503Z,31.80
2023-02-22T17:06:48.663Z,37.10
2023-02-22T17:09:15.730Z,50.30
2023-02-22T17:11:43.673Z,44.60
2023-02-22T17:14:17.544Z,38.30
2023-02-22T17:16:46.514Z,30.00
2023-02-22T17:19:19.829Z,33.80
2023-02-22T17:21:48.234Z,35.00
2023-02-22T17:24:19.516Z,44.00
2023-02-22T17:26:46.469Z,40.60
2023-02-22T17:29:17.159Z,31.20
2023-02-22T17:31:45.254Z,30.00
2023-02-22T17:34:12.610Z,32.90
2023-02-22T17:36:39.509Z,30.50
2023-02-22T17:39:09.928Z,33.00
2023-02-22T17:41:40.326Z,51.00
2023-02-22T17:44:07.801Z,42.80
2023-02-22T17:46:40.226Z,36.40
2023-02-22T17:49:07.782Z,34.80
2023-02-22T17:51:34.785Z,32.40
2023-02-22T17:54:01.946Z,30.70
2023-02-22T17:56:28.987Z,36.60
2023-02-22T17:58:56.362Z,41.40
2023-02-22T18:01:31.565Z,34.50
2023-02-22T18:04:01.588Z,32.10
2023-02-22T18:06:32.112Z,30.70
2023-02-22T18:09:00.442Z,33.50
2023-02-22T18:11:31.930Z,36.00
2023-02-22T18:13:59.206Z,51.00
2023-02-22T18:16:27.673Z,42.00
2023-02-22T18:18:55.978Z,50.80
2023-02-22T18:21:23.880Z,48.50
2023-02-22T18:23:50.769Z,65.40
2023-02-22T18:26:20.901Z,67.90
2023-02-22T18:28:48.743Z,59.80
2023-02-22T18:31:17.956Z,55.40
2023-02-22T18:33:47.643Z,45.10
2023-02-22T18:36:16.857Z,45.90
2023-02-22T18:38:44.199Z,39.60
2023-02-22T18:41:15.636Z,39.00
2023-02-22T18:43:43.470Z,36.90
2023-02-22T18:46:12.699Z,39.80
2023-02-22T18:48:40.234Z,35.40
2023-02-22T18:51:11.183Z,36.60
2023-02-22T18:53:40.522Z,44.50
2023-02-22T18:56:10.565Z,53.60
2023-02-22T18:58:38.288Z,51.80
2023-02-22T19:01:06.727Z,64.70
2023-02-22T19:03:37.495Z,70.00
2023-02-22T19:06:10.193Z,51.50
2023-02-22T19:08:38.922Z,59.10
2023-02-22T19:11:12.358Z,55.30
2023-02-22T19:13:40.148Z,60.60
2023-02-22T19:16:09.507Z,53.90
2023-02-22T19:18:36.601Z,53.70
2023-02-22T19:21:08.060Z,60.90
2023-02-22T19:23:44.820Z,61.90
2023-02-22T19:26:20.648Z,66.00
2023-02-22T19:28:47.910Z,72.20
2023-02-22T19:31:25.493Z,78.80
2023-02-22T19:33:52.996Z,55.50
2023-02-22T19:36:25.117Z,38.30
2023-02-22T19:38:52.011Z,33.40
2023-02-22T19:41:22.437Z,31.40
2023-02-22T19:43:52.349Z,26.10
2023-02-22T19:46:21.080Z,30.60
2023-02-22T19:48:48.729Z,28.60
2023-02-22T19:51:18.012Z,22.80
2023-02-22T19:53:45.425Z,23.60
2023-02-22T19:56:18.685Z,29.50
2023-02-22T19:58:49.093Z,28.30
2023-02-22T20:01:22.508Z,30.20
2023-02-22T20:03:59.157Z,32.10
2023-02-22T20:06:30.263Z,32.20
2023-02-22T20:08:57.700Z,33.40
2023-02-22T20:11:27.125Z,26.90
2023-02-22T20:13:57.238Z,33.80
2023-02-22T20:16:24.093Z,28.10
2023-02-22T20:18:51.558Z,31.80
2023-02-22T20:21:23.724Z,24.20
2023-02-22T20:23:50.716Z,28.50
2023-02-22T20:26:21.940Z,22.30
2023-02-22T20:28:49.779Z,25.40
2023-02-22T20:31:17.877Z,21.00
2023-02-22T20:33:46.914Z,19.10
2023-02-22T20:36:17.128Z,24.80
2023-02-22T20:38:45.299Z,23.90
2023-02-22T20:41:22.413Z,18.90
2023-02-22T20:43:50.772Z,17.20
2023-02-22T20:46:17.941Z,19.80
2023-02-22T20:48:45.484Z,19.00
2023-02-22T20:51:14.844Z,26.40
2023-02-22T20:53:44.356Z,22.30
2023-02-22T20:56:13.480Z,18.90
2023-02-22T20:58:41.590Z,20.10
2023-02-22T21:01:13.912Z,24.90
2023-02-22T21:03:43.176Z,25.60
2023-02-22T21:06:15.006Z,21.40
2023-02-22T21:08:50.127Z,20.60
2023-02-22T21:11:18.280Z,18.30
2023-02-22T21:13:45.676Z,17.30
2023-02-22T21:16:18.030Z,15.10
2023-02-22T21:18:46.280Z,18.30
2023-02-22T21:21:13.190Z,20.80
2023-02-22T21:23:40.853Z,24.00
2023-02-22T21:26:16.688Z,18.70
2023-02-22T21:28:50.845Z,22.90
2023-02-22T21:31:21.723Z,27.70
2023-02-22T21:33:51.538Z,15.50
2023-02-22T21:36:19.929Z,27.30
2023-02-22T21:38:52.608Z,26.00
2023-02-22T21:41:23.096Z,25.90
2023-02-22T21:43:54.078Z,31.20
2023-02-22T21:46:22.184Z,30.20
2023-02-22T21:48:49.247Z,25.50
2023-02-22T21:51:20.257Z,26.50
2023-02-22T21:53:51.504Z,22.60
2023-02-22T21:56:23.682Z,22.70
2023-02-22T22:01:46.410Z,14.60
2023-02-22T22:04:18.218Z,19.30
2023-02-22T22:06:53.276Z,22.70
2023-02-22T22:09:23.047Z,22.20
2023-02-22T22:11:53.042Z,20.30
2023-02-22T22:14:22.824Z,20.00
2023-02-22T22:16:58.052Z,24.70
2023-02-22T22:19:30.723Z,21.40
2023-02-22T22:21:57.839Z,20.70
2023-02-22T22:24:28.057Z,22.30
2023-02-22T22:26:55.351Z,21.00
2023-02-22T22:29:26.431Z,24.30
2023-02-22T22:31:55.792Z,19.10
2023-02-22T22:34:23.803Z,22.10
2023-02-22T22:36:52.348Z,25.80
2023-02-22T22:39:20.368Z,38.20
2023-02-22T22:41:47.753Z,32.90
2023-02-22T22:44:15.885Z,25.40
2023-02-22T22:46:48.416Z,20.30
2023-02-22T22:49:15.831Z,23.80
2023-02-22T22:51:42.779Z,28.00
2023-02-22T22:54:13.288Z,24.00
2023-02-22T22:56:41.730Z,21.90
2023-02-22T22:59:12.606Z,24.60
2023-02-22T23:01:43.801Z,21.40
2023-02-22T23:04:15.605Z,28.30
2023-02-22T23:06:49.349Z,24.80
2023-02-22T23:09:23.672Z,25.90
2023-02-22T23:11:53.109Z,34.90
2023-02-22T23:14:30.547Z,18.20
2023-02-22T23:17:02.723Z,29.90
2023-02-22T23:19:36.221Z,30.80
2023-02-22T23:22:06.396Z,30.70
2023-02-22T23:24:35.586Z,39.20
2023-02-22T23:27:06.721Z,25.70
2023-02-22T23:29:37.540Z,23.90
2023-02-22T23:32:06.002Z,19.90
2023-02-22T23:34:35.255Z,20.60
2023-02-22T23:42:02.479Z,23.70
2023-02-22T23:44:29.827Z,14.70
2023-02-22T23:46:56.734Z,22.40
2023-02-22T23:49:35.258Z,18.50
2023-02-22T23:52:03.505Z,19.70
2023-02-22T23:54:35.730Z,20.30
2023-02-22T23:57:04.834Z,22.30
2023-02-22T23:59:32.883Z,18.70
